Time;durP1;ratioP1;P1;durP2;ratioP2;P2;SDS_P1;SDS_P2;PMS_P1;PMS_P2;Temp;Humidity;BMP_temperature;BMP_pressure;BME280_temperature;BME280_humidity;BME280_pressure;Samples;Min_cycle;Max_cycle;Signal;HPM_P1;HPM_P2
2023/08/04 00:00:09;;;;;;;14.48;4.15;;;;;;;;;;5096200;28;20023;-73
2023/08/04 00:02:37;;;;;;;4.75;3.22;;;;;;;;;;5114409;28;20027;-73
2023/08/04 00:05:04;;;;;;;10.80;4.93;;;;;;;;;;5095415;28;20024;-73
2023/08/04 00:07:29;;;;;;;11.73;3.53;;;;;;;;;;5114048;28;20027;-73
2023/08/04 00:09:55;;;;;;;13.43;3.90;;;;;;;;;;5114204;28;20031;-73
2023/08/04 00:12:20;;;;;;;8.90;3.88;;;;;;;;;;5114277;28;20024;-74
2023/08/04 00:14:47;;;;;;;9.27;3.97;;;;;;;;;;5095527;28;20396;-74
2023/08/04 00:17:12;;;;;;;7.57;3.22;;;;;;;;;;5095847;28;20027;-73
2023/08/04 00:19:41;;;;;;;11.50;3.60;;;;;;;;;;5078574;28;20374;-73
2023/08/04 00:22:06;;;;;;;8.38;3.80;;;;;;;;;;5113105;28;20027;-73
2023/08/04 00:24:31;;;;;;;13.43;3.72;;;;;;;;;;5095775;28;20110;-73
2023/08/04 00:26:57;;;;;;;10.85;4.03;;;;;;;;;;5095163;28;20047;-73
2023/08/04 00:29:22;;;;;;;9.80;3.17;;;;;;;;;;5095508;28;20530;-73
2023/08/04 00:31:47;;;;;;;11.25;3.60;;;;;;;;;;5113702;28;20087;-73
2023/08/04 00:34:12;;;;;;;11.63;3.50;;;;;;;;;;5113707;28;20019;-73
2023/08/04 00:36:38;;;;;;;9.38;3.60;;;;;;;;;;5095505;28;20084;-73
2023/08/04 00:39:03;;;;;;;6.20;3.40;;;;;;;;;;5095524;28;20102;-73
2023/08/04 00:41:29;;;;;;;10.05;3.70;;;;;;;;;;5077988;28;20016;-74
2023/08/04 00:43:54;;;;;;;10.90;3.72;;;;;;;;;;5095424;28;20477;-73
2023/08/04 00:46:19;;;;;;;8.15;3.60;;;;;;;;;;5095301;28;20088;-73
2023/08/04 00:48:45;;;;;;;9.85;3.70;;;;;;;;;;5095407;28;20063;-73
2023/08/04 00:51:10;;;;;;;9.85;3.63;;;;;;;;;;5077920;28;20024;-73
2023/08/04 00:53:35;;;;;;;7.75;3.30;;;;;;;;;;5113486;28;20096;-73
2023/08/04 00:56:02;;;;;;;8.77;3.50;;;;;;;;;;5095317;28;20063;-73
2023/08/04 00:58:28;;;;;;;9.45;3.60;;;;;;;;;;5113465;28;20470;-73
2023/08/04 01:00:55;;;;;;;8.75;3.78;;;;;;;;;;5095107;28;20027;-73
2023/08/04 01:03:22;;;;;;;11.10;3.70;;;;;;;;;;5095102;28;20040;-73
2023/08/04 01:05:56;;;;;;;9.88;4.15;;;;;;;;;;5094989;28;20655;-73
2023/08/04 01:08:30;;;;;;;7.63;2.70;;;;;;;;;;5095513;28;20032;-73
2023/08/04 01:11:00;;;;;;;6.60;3.17;;;;;;;;;;5113531;28;20016;-73
2023/08/04 01:13:27;;;;;;;4.57;2.83;;;;;;;;;;5094559;28;20046;-73
2023/08/04 01:15:52;;;;;;;6.80;2.95;;;;;;;;;;5095163;28;20023;-73
2023/08/04 01:18:20;;;;;;;5.55;2.70;;;;;;;;;;5095144;28;20028;-73
2023/08/04 01:20:45;;;;;;;7.47;2.60;;;;;;;;;;5094848;28;20485;-73
2023/08/04 01:23:11;;;;;;;6.72;2.60;;;;;;;;;;5095636;28;20024;-73
2023/08/04 01:25:36;;;;;;;7.82;2.28;;;;;;;;;;5113131;28;20023;-73
2023/08/04 01:28:05;;;;;;;12.30;2.97;;;;;;;;;;5094475;28;20541;-73
2023/08/04 01:30:31;;;;;;;4.97;2.70;;;;;;;;;;5094926;28;20032;-73
2023/08/04 01:32:56;;;;;;;7.75;2.65;;;;;;;;;;5095657;28;20019;-73
2023/08/04 01:35:21;;;;;;;6.82;2.42;;;;;;;;;;5098797;28;20023;-73
2023/08/04 01:37:47;;;;;;;8.45;2.33;;;;;;;;;;5098786;28;20032;-73
2023/08/04 01:40:13;;;;;;;5.10;2.53;;;;;;;;;;5116379;28;20046;-73
2023/08/04 01:42:38;;;;;;;4.47;2.83;;;;;;;;;;5116784;28;20023;-73
2023/08/04 01:45:04;;;;;;;5.82;2.78;;;;;;;;;;5098560;28;20511;-73
2023/08/04 01:47:29;;;;;;;7.13;2.55;;;;;;;;;;5097970;28;20055;-73
2023/08/04 01:49:55;;;;;;;4.70;2.42;;;;;;;;;;5098579;28;20407;-73
2023/08/04 01:52:21;;;;;;;8.10;2.30;;;;;;;;;;5098459;28;20106;-73
2023/08/04 01:54:46;;;;;;;7.85;2.85;;;;;;;;;;5080893;28;20563;-73
2023/08/04 01:57:12;;;;;;;9.02;3.17;;;;;;;;;;5098579;28;20031;-73
2023/08/04 01:59:37;;;;;;;4.38;2.05;;;;;;;;;;5098315;28;20437;-73
2023/08/04 02:02:02;;;;;;;11.50;2.67;;;;;;;;;;5116430;28;20016;-73
2023/08/04 02:04:28;;;;;;;7.57;2.42;;;;;;;;;;5098382;28;20023;-73
2023/08/04 02:06:54;;;;;;;5.30;2.85;;;;;;;;;;5098019;28;20043;-73
2023/08/04 02:09:19;;;;;;;7.22;2.58;;;;;;;;;;5098627;28;20107;-73
2023/08/04 02:11:45;;;;;;;6.10;2.33;;;;;;;;;;5098084;28;20043;-73
2023/08/04 02:14:10;;;;;;;11.95;2.45;;;;;;;;;;5116243;28;20027;-74
2023/08/04 02:16:35;;;;;;;4.80;2.58;;;;;;;;;;5081094;28;20153;-74
2023/08/04 02:19:06;;;;;;;6.10;2.33;;;;;;;;;;5115420;28;20480;-74
2023/08/04 02:21:31;;;;;;;6.38;2.53;;;;;;;;;;5098476;28;20040;-73
2023/08/04 02:23:57;;;;;;;7.88;2.97;;;;;;;;;;5098047;28;20092;-73
2023/08/04 02:26:23;;;;;;;9.68;2.47;;;;;;;;;;5116028;28;20020;-73
2023/08/04 02:28:50;;;;;;;11.15;3.72;;;;;;;;;;5115903;28;20035;-73
2023/08/04 02:31:17;;;;;;;9.00;3.08;;;;;;;;;;5098283;28;20477;-73
2023/08/04 02:33:42;;;;;;;6.25;2.53;;;;;;;;;;5097225;28;20032;-73
2023/08/04 02:36:07;;;;;;;9.63;2.78;;;;;;;;;;5080792;28;20030;-73
2023/08/04 02:38:33;;;;;;;7.07;2.45;;;;;;;;;;5097524;28;20419;-73
2023/08/04 02:41:04;;;;;;;9.88;2.80;;;;;;;;;;5080507;28;20073;-73
2023/08/04 02:43:30;;;;;;;7.25;2.78;;;;;;;;;;5097589;28;20173;-73
2023/08/04 02:45:55;;;;;;;5.82;2.80;;;;;;;;;;5096801;28;20051;-73
2023/08/04 02:48:20;;;;;;;5.80;2.60;;;;;;;;;;5098192;28;20122;-73
2023/08/04 02:50:46;;;;;;;6.72;2.33;;;;;;;;;;5080404;28;20016;-73
2023/08/04 02:53:12;;;;;;;5.03;2.10;;;;;;;;;;5080823;28;20453;-73
2023/08/04 02:55:38;;;;;;;8.57;2.97;;;;;;;;;;5114988;28;20055;-73
2023/08/04 02:58:03;;;;;;;13.65;2.97;;;;;;;;;;5097267;28;20499;-73
2023/08/04 03:00:28;;;;;;;5.32;2.55;;;;;;;;;;5096964;28;20066;-73
2023/08/04 03:02:54;;;;;;;10.35;2.90;;;;;;;;;;5115269;28;20024;-73
2023/08/04 03:05:19;;;;;;;6.40;3.50;;;;;;;;;;5115330;28;20019;-73
2023/08/04 03:07:44;;;;;;;8.30;3.03;;;;;;;;;;5079631;28;20182;-73
2023/08/04 03:10:09;;;;;;;8.15;2.97;;;;;;;;;;5096928;28;20034;-73
2023/08/04 03:12:35;;;;;;;14.30;4.28;;;;;;;;;;5115440;28;20019;-73
2023/08/04 03:15:00;;;;;;;14.30;3.40;;;;;;;;;;5096737;28;20386;-73
2023/08/04 03:17:25;;;;;;;9.73;2.92;;;;;;;;;;5114591;28;20031;-73
2023/08/04 03:19:50;;;;;;;8.68;3.08;;;;;;;;;;5096646;28;20057;-73
2023/08/04 03:22:16;;;;;;;11.98;2.95;;;;;;;;;;5114879;28;20102;-73
2023/08/04 03:24:41;;;;;;;11.20;3.38;;;;;;;;;;5115038;28;20396;-73
2023/08/04 03:27:06;;;;;;;4.55;3.10;;;;;;;;;;5096717;28;20077;-73
2023/08/04 03:29:32;;;;;;;9.23;3.42;;;;;;;;;;5096042;28;20016;-73
2023/08/04 03:31:57;;;;;;;8.10;2.70;;;;;;;;;;5114712;28;20190;-73
2023/08/04 03:34:22;;;;;;;7.55;2.45;;;;;;;;;;5096601;28;20076;-73
2023/08/04 03:36:48;;;;;;;7.38;2.78;;;;;;;;;;5114599;28;20020;-73
2023/08/04 03:39:13;;;;;;;7.95;2.83;;;;;;;;;;5114546;28;20023;-73
2023/08/04 03:41:38;;;;;;;7.70;3.30;;;;;;;;;;5095801;28;20027;-73
2023/08/04 03:44:04;;;;;;;12.25;3.17;;;;;;;;;;5091961;28;20042;-73
2023/08/04 03:46:29;;;;;;;9.02;2.75;;;;;;;;;;5068900;28;20055;-74
2023/08/04 03:48:54;;;;;;;8.35;2.80;;;;;;;;;;5092582;28;20446;-74
2023/08/04 03:51:20;;;;;;;5.68;2.65;;;;;;;;;;5090653;28;20039;-73
2023/08/04 03:53:45;;;;;;;9.20;2.83;;;;;;;;;;5112583;28;20107;-74
2023/08/04 03:56:10;;;;;;;9.13;3.60;;;;;;;;;;5091200;28;20036;-73
2023/08/04 03:58:36;;;;;;;7.18;3.13;;;;;;;;;;5075448;28;20031;-73
2023/08/04 04:01:01;;;;;;;5.60;2.63;;;;;;;;;;5058843;28;20131;-73
2023/08/04 04:03:27;;;;;;;11.50;2.75;;;;;;;;;;5075914;28;20032;-73
2023/08/04 04:05:52;;;;;;;8.32;2.53;;;;;;;;;;5076533;28;20393;-73
2023/08/04 04:08:17;;;;;;;6.90;2.97;;;;;;;;;;5078343;28;20062;-73
2023/08/04 04:10:42;;;;;;;10.13;2.80;;;;;;;;;;5095787;28;20023;-74
2023/08/04 04:13:08;;;;;;;5.45;3.00;;;;;;;;;;5114012;28;20019;-73
2023/08/04 04:15:33;;;;;;;8.13;2.72;;;;;;;;;;5113795;28;20027;-73
2023/08/04 04:17:58;;;;;;;10.02;2.63;;;;;;;;;;5113985;28;20160;-73
2023/08/04 04:20:24;;;;;;;4.68;2.47;;;;;;;;;;5135062;22;20458;-75
2023/08/04 04:22:49;;;;;;;9.68;2.60;;;;;;;;;;5075536;28;20035;-75
2023/08/04 04:25:14;;;;;;;6.57;2.08;;;;;;;;;;5067835;28;20040;-74
2023/08/04 04:27:39;;;;;;;5.78;2.80;;;;;;;;;;5055355;28;20028;-75
2023/08/04 04:30:05;;;;;;;8.82;2.78;;;;;;;;;;5072670;28;20039;-75
2023/08/04 04:32:33;;;;;;;5.22;2.35;;;;;;;;;;5073071;28;20012;-75
2023/08/04 04:34:58;;;;;;;6.07;2.50;;;;;;;;;;5055878;28;20074;-75
2023/08/04 04:37:23;;;;;;;7.03;2.33;;;;;;;;;;5055383;28;20028;-75
2023/08/04 04:39:48;;;;;;;8.32;2.45;;;;;;;;;;5055580;28;20415;-74
2023/08/04 04:42:16;;;;;;;9.40;3.20;;;;;;;;;;5073175;28;20103;-74
2023/08/04 04:44:42;;;;;;;7.03;2.33;;;;;;;;;;5055571;28;20027;-75
2023/08/04 04:47:09;;;;;;;7.78;2.45;;;;;;;;;;5073859;28;20028;-75
2023/08/04 04:49:34;;;;;;;5.78;2.58;;;;;;;;;;5075092;28;20127;-75
2023/08/04 04:51:59;;;;;;;6.85;2.42;;;;;;;;;;5058523;28;20488;-75
2023/08/04 04:54:25;;;;;;;4.85;2.35;;;;;;;;;;5093232;28;20032;-75
2023/08/04 04:56:50;;;;;;;9.30;2.53;;;;;;;;;;5075391;28;20405;-75
2023/08/04 04:59:15;;;;;;;7.82;2.20;;;;;;;;;;5092581;28;20110;-75
2023/08/04 05:01:41;;;;;;;7.20;2.78;;;;;;;;;;5054788;28;20111;-75
2023/08/04 05:04:06;;;;;;;5.72;2.85;;;;;;;;;;5055012;28;20032;-75
2023/08/04 05:06:31;;;;;;;6.90;2.22;;;;;;;;;;5055419;28;20114;-75
2023/08/04 05:08:57;;;;;;;4.97;2.28;;;;;;;;;;5057342;28;20029;-75
2023/08/04 05:11:22;;;;;;;9.55;2.70;;;;;;;;;;5058645;28;20021;-76
2023/08/04 05:13:47;;;;;;;10.32;2.53;;;;;;;;;;5058856;28;20020;-75
2023/08/04 05:16:13;;;;;;;8.85;2.75;;;;;;;;;;5076928;28;20486;-75
2023/08/04 05:18:38;;;;;;;6.15;2.42;;;;;;;;;;5042317;28;20090;-75
2023/08/04 05:21:03;;;;;;;6.40;2.67;;;;;;;;;;5041620;28;20072;-75
2023/08/04 05:23:28;;;;;;;6.65;2.50;;;;;;;;;;5058953;28;20032;-75
2023/08/04 05:25:54;;;;;;;4.22;2.22;;;;;;;;;;5042198;28;20032;-75
2023/08/04 05:28:20;;;;;;;5.57;2.20;;;;;;;;;;5076768;28;20074;-76
2023/08/04 05:30:46;;;;;;;8.40;2.65;;;;;;;;;;5058685;28;20033;-75
2023/08/04 05:33:11;;;;;;;5.68;1.92;;;;;;;;;;5076576;28;20028;-75
2023/08/04 05:35:38;;;;;;;5.93;2.20;;;;;;;;;;5041645;28;20025;-75
2023/08/04 05:38:04;;;;;;;7.15;2.20;;;;;;;;;;5077299;28;20095;-75
2023/08/04 05:40:29;;;;;;;5.07;2.55;;;;;;;;;;5044603;28;20062;-75
2023/08/04 05:42:54;;;;;;;4.63;1.73;;;;;;;;;;5058364;28;20127;-75
2023/08/04 05:45:20;;;;;;;7.00;2.40;;;;;;;;;;5076376;28;20075;-75
2023/08/04 05:47:45;;;;;;;7.20;2.17;;;;;;;;;;5057915;28;20020;-75
2023/08/04 05:50:10;;;;;;;6.20;1.90;;;;;;;;;;5075986;28;20020;-75
2023/08/04 05:52:36;;;;;;;9.00;2.40;;;;;;;;;;5076476;28;20520;-75
2023/08/04 05:55:02;;;;;;;9.02;2.05;;;;;;;;;;5058243;28;20413;-75
2023/08/04 05:57:27;;;;;;;3.00;1.88;;;;;;;;;;5058045;28;20024;-75
2023/08/04 05:59:52;;;;;;;6.95;2.17;;;;;;;;;;5072062;23;20124;-75
2023/08/04 06:02:17;;;;;;;5.47;2.30;;;;;;;;;;5078095;28;20396;-75
2023/08/04 06:04:43;;;;;;;6.15;2.20;;;;;;;;;;5096340;28;20477;-75
2023/08/04 06:07:08;;;;;;;5.38;2.05;;;;;;;;;;5077554;28;20020;-75
2023/08/04 06:09:33;;;;;;;8.10;2.08;;;;;;;;;;5095959;28;20036;-75
2023/08/04 06:11:59;;;;;;;8.38;2.17;;;;;;;;;;5078055;28;20157;-75
2023/08/04 06:14:24;;;;;;;3.95;2.35;;;;;;;;;;5077966;28;20024;-75
2023/08/04 06:16:49;;;;;;;8.23;1.92;;;;;;;;;;5061236;28;20474;-75
2023/08/04 06:19:14;;;;;;;7.35;2.15;;;;;;;;;;5095123;28;20111;-75
2023/08/04 06:21:40;;;;;;;7.97;2.17;;;;;;;;;;5094183;28;20032;-76
2023/08/04 06:24:05;;;;;;;5.32;2.00;;;;;;;;;;5096199;28;20035;-75
2023/08/04 06:26:30;;;;;;;7.03;2.80;;;;;;;;;;5077837;28;20020;-75
2023/08/04 06:28:56;;;;;;;5.90;2.30;;;;;;;;;;5095915;28;20032;-75
2023/08/04 06:31:21;;;;;;;3.75;1.83;;;;;;;;;;5077611;28;20107;-75
2023/08/04 06:33:46;;;;;;;4.28;1.92;;;;;;;;;;5077361;28;20035;-75
2023/08/04 06:36:11;;;;;;;6.50;2.13;;;;;;;;;;5077761;28;20020;-75
2023/08/04 06:38:37;;;;;;;7.00;2.05;;;;;;;;;;5095834;28;20081;-76
2023/08/04 06:41:02;;;;;;;3.65;1.77;;;;;;;;;;5095684;28;20058;-76
2023/08/04 06:43:27;;;;;;;5.63;2.03;;;;;;;;;;5077389;28;20026;-76
2023/08/04 06:45:52;;;;;;;8.68;2.38;;;;;;;;;;5074683;28;20032;-75
2023/08/04 06:48:18;;;;;;;8.18;2.47;;;;;;;;;;5077311;28;20032;-75
2023/08/04 06:50:46;;;;;;;6.55;2.53;;;;;;;;;;5095123;28;20119;-75
2023/08/04 06:53:11;;;;;;;3.45;1.67;;;;;;;;;;5095195;28;20077;-75
2023/08/04 06:55:36;;;;;;;6.07;2.13;;;;;;;;;;5077041;28;20024;-75
2023/08/04 06:58:02;;;;;;;6.60;1.90;;;;;;;;;;5095529;28;20035;-75
2023/08/04 07:00:27;;;;;;;4.18;2.40;;;;;;;;;;5077147;28;20034;-75
2023/08/04 07:02:52;;;;;;;4.60;2.08;;;;;;;;;;5060525;28;20050;-75
2023/08/04 07:05:17;;;;;;;8.25;2.50;;;;;;;;;;5077249;28;20020;-75
2023/08/04 07:07:44;;;;;;;4.43;2.22;;;;;;;;;;5093518;28;20518;-75
2023/08/04 07:10:10;;;;;;;7.88;2.30;;;;;;;;;;5077308;28;20045;-75
2023/08/04 07:12:36;;;;;;;5.03;2.15;;;;;;;;;;5095532;28;20020;-75
2023/08/04 07:15:01;;;;;;;4.45;2.20;;;;;;;;;;5077350;28;20506;-76
2023/08/04 07:17:27;;;;;;;8.05;2.38;;;;;;;;;;5077346;28;20028;-75
2023/08/04 07:19:53;;;;;;;6.38;3.00;;;;;;;;;;5093579;28;20024;-75
2023/08/04 07:22:18;;;;;;;3.17;2.00;;;;;;;;;;5077437;28;20028;-75
2023/08/04 07:24:43;;;;;;;9.18;2.47;;;;;;;;;;5093889;28;20038;-76
2023/08/04 07:27:09;;;;;;;3.95;2.15;;;;;;;;;;5076598;28;20124;-75
2023/08/04 07:29:34;;;;;;;8.18;2.55;;;;;;;;;;5075697;28;20023;-76
2023/08/04 07:32:00;;;;;;;5.13;1.90;;;;;;;;;;5060348;28;20069;-76
2023/08/04 07:34:25;;;;;;;6.20;2.05;;;;;;;;;;5076712;28;20024;-76
2023/08/04 07:36:51;;;;;;;5.07;2.63;;;;;;;;;;5076352;28;20055;-75
2023/08/04 07:39:16;;;;;;;7.50;2.38;;;;;;;;;;5076931;28;20035;-75
2023/08/04 07:41:41;;;;;;;10.35;2.33;;;;;;;;;;5076595;28;20034;-75
2023/08/04 07:44:07;;;;;;;6.45;2.33;;;;;;;;;;5075766;28;20558;-74
2023/08/04 07:46:32;;;;;;;7.00;2.22;;;;;;;;;;5094499;28;20377;-75
2023/08/04 07:48:57;;;;;;;4.65;2.08;;;;;;;;;;5076247;28;20032;-75
2023/08/04 07:51:23;;;;;;;6.65;2.35;;;;;;;;;;5059353;28;20023;-74
2023/08/04 07:53:48;;;;;;;9.07;2.25;;;;;;;;;;5059237;28;20453;-74
2023/08/04 07:56:14;;;;;;;9.90;2.17;;;;;;;;;;5075814;28;20078;-74
2023/08/04 07:58:39;;;;;;;10.90;2.42;;;;;;;;;;5076033;28;20016;-75
2023/08/04 08:01:04;;;;;;;7.28;1.90;;;;;;;;;;5097896;22;20047;-75
2023/08/04 08:03:32;;;;;;;4.97;1.95;;;;;;;;;;5095613;28;20032;-75
2023/08/04 08:05:58;;;;;;;11.60;2.17;;;;;;;;;;5114329;28;20030;-75
2023/08/04 08:08:23;;;;;;;7.68;2.65;;;;;;;;;;5114451;28;20393;-75
2023/08/04 08:10:48;;;;;;;6.05;2.22;;;;;;;;;;5096204;28;20031;-75
2023/08/04 08:13:13;;;;;;;8.13;2.35;;;;;;;;;;5095353;28;20061;-75
2023/08/04 08:15:39;;;;;;;8.43;2.35;;;;;;;;;;5079135;28;20037;-75
2023/08/04 08:18:04;;;;;;;7.40;2.33;;;;;;;;;;5114283;28;20034;-75
2023/08/04 08:20:29;;;;;;;7.35;2.15;;;;;;;;;;5114142;28;20100;-75
2023/08/04 08:22:56;;;;;;;4.85;1.80;;;;;;;;;;5113770;28;20051;-75
2023/08/04 08:25:21;;;;;;;9.57;2.10;;;;;;;;;;5114496;28;20065;-75
2023/08/04 08:27:47;;;;;;;6.00;2.03;;;;;;;;;;5096318;28;20028;-74
2023/08/04 08:30:15;;;;;;;6.40;2.13;;;;;;;;;;5114393;28;20027;-74
2023/08/04 08:32:40;;;;;;;8.00;1.88;;;;;;;;;;5113921;28;20121;-75
2023/08/04 08:35:06;;;;;;;5.97;2.00;;;;;;;;;;5095310;28;20122;-74
2023/08/04 08:37:31;;;;;;;15.43;3.40;;;;;;;;;;5113774;28;20027;-74
2023/08/04 08:39:57;;;;;;;4.05;2.38;;;;;;;;;;5095641;28;20045;-75
2023/08/04 08:42:22;;;;;;;6.32;1.90;;;;;;;;;;5095000;28;20020;-74
2023/08/04 08:44:48;;;;;;;7.72;2.03;;;;;;;;;;5095470;28;20024;-75
2023/08/04 08:47:14;;;;;;;5.95;1.83;;;;;;;;;;5086489;28;20081;-74
2023/08/04 08:49:48;;;;;;;5.13;1.95;;;;;;;;;;5094900;28;20015;-74
2023/08/04 08:52:13;;;;;;;3.78;1.85;;;;;;;;;;5094749;28;20024;-74
2023/08/04 08:54:39;;;;;;;4.25;1.85;;;;;;;;;;5095347;28;20020;-74
2023/08/04 08:57:05;;;;;;;9.98;2.25;;;;;;;;;;5095351;28;20083;-74
2023/08/04 08:59:31;;;;;;;6.57;1.75;;;;;;;;;;5078022;28;20412;-73
2023/08/04 09:01:56;;;;;;;4.00;1.90;;;;;;;;;;5095094;28;20023;-75
2023/08/04 09:04:22;;;;;;;4.85;2.25;;;;;;;;;;5095467;28;20032;-74
2023/08/04 09:06:47;;;;;;;6.00;2.35;;;;;;;;;;5095189;28;20501;-75
2023/08/04 09:09:13;;;;;;;9.18;2.08;;;;;;;;;;5095438;28;20034;-75
2023/08/04 09:11:38;;;;;;;10.07;1.98;;;;;;;;;;5095175;28;20019;-75
2023/08/04 09:14:04;;;;;;;7.32;1.95;;;;;;;;;;5094757;28;20476;-74
2023/08/04 09:16:36;;;;;;;7.70;2.47;;;;;;;;;;5095346;28;20016;-74
2023/08/04 09:19:05;;;;;;;4.70;1.80;;;;;;;;;;5095396;28;20032;-75
2023/08/04 09:21:31;;;;;;;7.57;2.05;;;;;;;;;;5095071;28;20027;-75
2023/08/04 09:23:56;;;;;;;5.82;1.98;;;;;;;;;;5094912;28;20019;-74
2023/08/04 09:26:21;;;;;;;5.60;1.85;;;;;;;;;;5112785;28;20103;-75
2023/08/04 09:29:03;;;;;;;6.15;1.92;;;;;;;;;;5095185;28;20027;-74
2023/08/04 09:31:34;;;;;;;5.50;1.75;;;;;;;;;;5094956;28;20047;-74
2023/08/04 09:33:59;;;;;;;5.75;1.83;;;;;;;;;;5113132;28;20452;-74
2023/08/04 09:36:27;;;;;;;6.75;2.35;;;;;;;;;;5077938;28;20027;-74
2023/08/04 09:39:01;;;;;;;8.52;2.20;;;;;;;;;;5095559;28;20034;-74
2023/08/04 09:41:27;;;;;;;3.95;1.98;;;;;;;;;;5094969;28;20420;-74
2023/08/04 09:43:52;;;;;;;6.28;2.00;;;;;;;;;;5094612;28;20106;-74
2023/08/04 09:46:18;;;;;;;6.63;2.20;;;;;;;;;;5074927;28;20056;-74
2023/08/04 09:48:43;;;;;;;8.13;2.47;;;;;;;;;;5092084;28;20024;-75
2023/08/04 09:51:13;;;;;;;8.43;2.20;;;;;;;;;;5092391;28;20020;-74
2023/08/04 09:53:45;;;;;;;8.95;3.60;;;;;;;;;;5074728;28;20038;-75
2023/08/04 09:56:12;;;;;;;7.70;2.55;;;;;;;;;;5095822;28;20477;-74
2023/08/04 09:58:38;;;;;;;6.78;4.13;;;;;;;;;;5098043;28;20047;-74
2023/08/04 10:01:04;;;;;;;8.77;2.20;;;;;;;;;;5081045;28;20031;-74
2023/08/04 10:03:30;;;;;;;8.25;2.50;;;;;;;;;;5098433;28;20390;-74
2023/08/04 10:06:00;;;;;;;7.22;2.95;;;;;;;;;;5095272;28;20019;-74
2023/08/04 10:08:41;;;;;;;9.90;3.40;;;;;;;;;;5078011;28;20026;-74
2023/08/04 10:11:07;;;;;;;6.38;2.65;;;;;;;;;;5078258;28;20020;-74
2023/08/04 10:13:38;;;;;;;11.63;2.95;;;;;;;;;;5078041;28;20024;-75
2023/08/04 10:16:05;;;;;;;7.15;2.70;;;;;;;;;;5077767;28;20531;-74
2023/08/04 10:18:55;;;;;;;9.30;2.67;;;;;;;;;;5090531;28;20024;-75
2023/08/04 10:21:38;;;;;;;10.95;3.00;;;;;;;;;;5097470;28;20413;-75
2023/08/04 10:24:04;;;;;;;;;;;;;;;;;;5098660;28;20031;-75
2023/08/04 10:26:32;;;;;;;8.35;2.88;;;;;;;;;;5098105;28;19914;-75
2023/08/04 10:29:03;;;;;;;4.78;2.40;;;;;;;;;;5080896;28;20030;-76
2023/08/04 10:31:50;;;;;;;6.60;2.40;;;;;;;;;;5097433;28;20023;-75
2023/08/04 10:34:16;;;;;;;6.55;2.25;;;;;;;;;;5092067;28;20476;-75
2023/08/04 10:37:14;;;;;;;8.73;2.42;;;;;;;;;;5094610;28;20016;-75
2023/08/04 10:39:41;;;;;;;5.53;2.22;;;;;;;;;;5073758;28;20036;-75
2023/08/04 10:42:29;;;;;;;4.47;2.28;;;;;;;;;;5074112;28;20020;-75
2023/08/04 10:45:05;;;;;;;6.55;2.25;;;;;;;;;;5061169;28;20543;-75
2023/08/04 10:47:40;;;;;;;6.97;2.50;;;;;;;;;;5057386;28;20035;-75
2023/08/04 10:50:06;;;;;;;5.38;2.20;;;;;;;;;;5074745;28;20021;-75
2023/08/04 10:52:33;;;;;;;7.90;2.28;;;;;;;;;;5040671;28;20020;-75
2023/08/04 10:54:58;;;;;;;4.35;2.08;;;;;;;;;;5074778;28;20477;-75
2023/08/04 10:57:28;;;;;;;7.60;2.20;;;;;;;;;;5057180;28;20036;-75
2023/08/04 10:59:54;;;;;;;7.15;2.80;;;;;;;;;;5070943;28;20028;-75
2023/08/04 11:02:20;;;;;;;6.55;2.05;;;;;;;;;;5094513;28;20020;-75
2023/08/04 11:04:47;;;;;;;5.97;2.70;;;;;;;;;;5102122;28;20099;-75
2023/08/04 11:07:16;;;;;;;9.95;2.05;;;;;;;;;;5097208;28;20020;-75
2023/08/04 11:09:42;;;;;;;5.88;2.28;;;;;;;;;;5096362;28;20058;-75
2023/08/04 11:12:08;;;;;;;4.40;2.50;;;;;;;;;;5076176;28;20043;-75
2023/08/04 11:14:35;;;;;;;6.80;2.53;;;;;;;;;;5059738;28;20024;-75
2023/08/04 11:17:01;;;;;;;9.73;2.83;;;;;;;;;;5076694;28;20028;-75
2023/08/04 11:19:28;;;;;;;8.15;4.22;;;;;;;;;;5059872;28;20027;-75
2023/08/04 11:21:54;;;;;;;9.98;4.10;;;;;;;;;;5076585;28;20020;-76
2023/08/04 11:24:25;;;;;;;9.38;3.78;;;;;;;;;;5059345;28;20024;-76
2023/08/04 11:26:51;;;;;;;18.08;4.45;;;;;;;;;;5076387;28;20024;-75
2023/08/04 11:29:17;;;;;;;6.95;3.10;;;;;;;;;;5076468;28;20031;-76
2023/08/04 11:31:43;;;;;;;10.05;3.13;;;;;;;;;;5059227;28;20028;-75
2023/08/04 11:34:13;;;;;;;5.35;3.22;;;;;;;;;;5076592;28;20031;-76
2023/08/04 11:36:42;;;;;;;10.43;3.20;;;;;;;;;;5076827;28;20108;-76
2023/08/04 11:39:07;;;;;;;10.77;3.25;;;;;;;;;;5095108;28;20150;-75
2023/08/04 11:41:32;;;;;;;12.05;3.15;;;;;;;;;;5076602;28;20102;-74
2023/08/04 11:44:01;;;;;;;11.52;3.17;;;;;;;;;;5094773;28;20024;-74
2023/08/04 11:46:27;;;;;;;11.02;3.45;;;;;;;;;;5076466;28;20028;-75
2023/08/04 11:48:52;;;;;;;12.07;3.22;;;;;;;;;;5060423;28;20157;-75
2023/08/04 11:51:17;;;;;;;9.15;3.05;;;;;;;;;;5076411;28;20052;-74
2023/08/04 11:53:46;;;;;;;7.30;3.40;;;;;;;;;;5076153;28;20087;-77
2023/08/04 11:56:11;;;;;;;13.60;3.33;;;;;;;;;;5059453;28;20046;-73
2023/08/04 11:58:43;;;;;;;14.05;3.45;;;;;;;;;;5094366;28;20478;-73
2023/08/04 12:01:30;;;;;;;7.20;3.78;;;;;;;;;;5076974;28;20411;-74
2023/08/04 12:03:55;;;;;;;8.32;3.63;;;;;;;;;;5076731;28;20028;-73
2023/08/04 12:06:22;;;;;;;8.43;3.47;;;;;;;;;;5059133;28;20039;-73
2023/08/04 12:08:48;;;;;;;11.48;3.47;;;;;;;;;;5076519;28;20085;-73
2023/08/04 12:11:14;;;;;;;16.20;3.38;;;;;;;;;;5076373;28;20424;-73
2023/08/04 12:13:40;;;;;;;8.30;2.97;;;;;;;;;;5075739;28;20027;-73
2023/08/04 12:16:05;;;;;;;9.48;2.72;;;;;;;;;;5076438;28;20028;-74
2023/08/04 12:18:31;;;;;;;8.52;3.13;;;;;;;;;;5075391;28;20050;-73
2023/08/04 12:20:59;;;;;;;5.75;2.50;;;;;;;;;;5059574;28;20020;-73
2023/08/04 12:23:24;;;;;;;14.60;3.05;;;;;;;;;;5076531;28;20466;-73
2023/08/04 12:25:50;;;;;;;7.97;2.92;;;;;;;;;;5093778;28;20115;-73
2023/08/04 12:28:16;;;;;;;8.95;2.90;;;;;;;;;;5076094;28;20076;-73
2023/08/04 12:30:41;;;;;;;7.60;2.67;;;;;;;;;;5059402;28;20028;-74
2023/08/04 12:33:07;;;;;;;6.80;2.75;;;;;;;;;;5093863;28;20016;-73
2023/08/04 12:35:32;;;;;;;6.03;2.78;;;;;;;;;;5059252;28;20032;-74
2023/08/04 12:38:00;;;;;;;10.70;2.88;;;;;;;;;;5076320;28;20367;-73
2023/08/04 12:40:25;;;;;;;7.00;2.40;;;;;;;;;;5076019;28;20027;-73
2023/08/04 12:42:50;;;;;;;9.13;2.58;;;;;;;;;;5059198;28;20038;-74
2023/08/04 12:45:15;;;;;;;9.93;2.50;;;;;;;;;;5093963;28;20489;-73
2023/08/04 12:47:41;;;;;;;4.18;2.33;;;;;;;;;;5075481;28;20031;-73
2023/08/04 12:50:06;;;;;;;7.05;2.25;;;;;;;;;;5093864;28;20032;-73
2023/08/04 12:52:32;;;;;;;6.85;2.28;;;;;;;;;;5059416;28;20423;-73
2023/08/04 12:54:57;;;;;;;5.65;2.20;;;;;;;;;;5075919;28;20431;-73
2023/08/04 12:57:22;;;;;;;6.50;2.25;;;;;;;;;;5058387;28;20458;-73
2023/08/04 12:59:48;;;;;;;5.10;2.42;;;;;;;;;;5093767;28;20524;-73
2023/08/04 13:02:13;;;;;;;5.07;2.17;;;;;;;;;;5093709;28;20024;-73
2023/08/04 13:04:38;;;;;;;9.93;2.78;;;;;;;;;;5058964;28;20028;-73
2023/08/04 13:07:04;;;;;;;9.57;3.22;;;;;;;;;;5075419;28;20504;-75
2023/08/04 13:09:29;;;;;;;6.85;2.33;;;;;;;;;;5049773;28;20028;-72
2023/08/04 13:11:54;;;;;;;6.47;2.58;;;;;;;;;;5082757;28;20028;-72
2023/08/04 13:14:19;;;;;;;7.50;2.65;;;;;;;;;;5084819;28;20074;-72
2023/08/04 13:16:46;;;;;;;4.85;2.15;;;;;;;;;;5085285;28;20389;-75
2023/08/04 13:19:11;;;;;;;8.85;2.67;;;;;;;;;;5085375;28;20031;-74
2023/08/04 13:21:36;;;;;;;6.00;2.60;;;;;;;;;;5085841;28;20107;-74
2023/08/04 13:24:02;;;;;;;9.65;2.78;;;;;;;;;;5079213;28;20470;-74
2023/08/04 13:26:27;;;;;;;7.63;2.80;;;;;;;;;;5082496;28;20108;-74
2023/08/04 13:28:52;;;;;;;6.43;2.42;;;;;;;;;;5046763;28;20024;-74
2023/08/04 13:31:17;;;;;;;6.78;2.55;;;;;;;;;;5084430;28;20035;-74
2023/08/04 13:33:43;;;;;;;5.78;2.67;;;;;;;;;;5087455;28;20520;-75
2023/08/04 13:36:08;;;;;;;6.15;2.75;;;;;;;;;;5086147;28;20040;-74
2023/08/04 13:38:33;;;;;;;6.22;2.45;;;;;;;;;;5069400;28;20035;-75
2023/08/04 13:40:59;;;;;;;7.97;2.83;;;;;;;;;;5077842;28;20068;-75
2023/08/04 13:43:25;;;;;;;6.28;2.55;;;;;;;;;;5079130;28;20035;-75
2023/08/04 13:45:51;;;;;;;9.10;2.75;;;;;;;;;;5063957;28;20037;-74
2023/08/04 13:48:16;;;;;;;8.27;4.47;;;;;;;;;;5084802;28;20035;-74
2023/08/04 13:50:41;;;;;;;9.90;2.72;;;;;;;;;;5069403;28;20020;-74
2023/08/04 13:53:06;;;;;;;6.95;2.53;;;;;;;;;;5081291;28;20028;-74
2023/08/04 13:55:35;;;;;;;7.07;2.20;;;;;;;;;;5070534;28;20048;-74
2023/08/04 13:58:02;;;;;;;10.30;3.65;;;;;;;;;;5075696;28;20039;-75
2023/08/04 14:00:28;;;;;;;6.60;2.55;;;;;;;;;;5067659;28;20086;-74
2023/08/04 14:02:53;;;;;;;5.65;2.28;;;;;;;;;;5068116;28;20024;-74
2023/08/04 14:05:18;;;;;;;4.00;2.00;;;;;;;;;;5078375;28;20101;-74
2023/08/04 14:07:43;;;;;;;4.70;2.25;;;;;;;;;;5085197;28;20023;-74
2023/08/04 14:10:10;;;;;;;4.88;2.13;;;;;;;;;;5089767;28;20024;-74
2023/08/04 14:12:35;;;;;;;5.55;2.40;;;;;;;;;;5065164;28;20035;-74
2023/08/04 14:15:03;;;;;;;7.03;2.10;;;;;;;;;;5068125;28;20028;-74
2023/08/04 14:17:28;;;;;;;7.00;2.42;;;;;;;;;;5060301;28;20077;-74
2023/08/04 14:19:53;;;;;;;13.52;3.53;;;;;;;;;;5065479;28;20495;-74
2023/08/04 14:22:19;;;;;;;6.05;2.42;;;;;;;;;;5079182;28;20025;-74
2023/08/04 14:24:44;;;;;;;8.52;2.70;;;;;;;;;;5069822;28;20023;-75
2023/08/04 14:27:09;;;;;;;6.15;2.42;;;;;;;;;;5082423;28;20027;-75
2023/08/04 14:29:35;;;;;;;11.02;2.60;;;;;;;;;;5085691;28;20020;-74
2023/08/04 14:32:00;;;;;;;10.18;3.90;;;;;;;;;;5088939;28;20375;-74
2023/08/04 14:34:25;;;;;;;6.72;2.42;;;;;;;;;;5060060;28;20112;-74